Time,TemperatureF,DewpointF,PressureIn,WindDirection,WindDirectionDegrees,WindSpeedMPH,WindSpeedGustMPH,Humidity,HourlyPrecipIn,Conditions,Clouds,dailyrainin,SoftwareType,DateUTC
2013-02-16 00:03:00,9.7,5.3,29.90,SE,135,1.1,2.2,82,0.00,,,0.00,WUHU216HW,2013-02-16 09:03:00,
2013-02-16 00:08:00,9.4,5.0,29.91,SE,135,1.8,2.2,82,0.00,,,0.00,WUHU216HW,2013-02-16 09:08:00,
2013-02-16 00:13:00,9.4,5.2,29.91,South,180,2.5,4.0,83,0.00,,,0.00,WUHU216HW,2013-02-16 09:13:00,
2013-02-16 00:18:00,9.5,5.4,29.91,SSW,203,2.5,4.0,83,0.00,,,0.00,WUHU216HW,2013-02-16 09:18:00,
2013-02-16 00:23:00,10.4,6.8,29.91,SW,225,1.8,4.7,85,0.00,,,0.00,WUHU216HW,2013-02-16 09:23:00,
2013-02-16 00:28:00,11.5,7.8,29.92,SSW,203,1.8,4.7,85,0.00,,,0.00,WUHU216HW,2013-02-16 09:28:00,
2013-02-16 00:33:00,11.9,8.2,29.92,SW,225,1.3,2.2,85,0.00,,,0.00,WUHU216HW,2013-02-16 09:33:00,
2013-02-16 00:38:00,11.9,8.2,29.93,SSW,203,1.8,2.9,85,0.00,,,0.00,WUHU216HW,2013-02-16 09:38:00,
2013-02-16 00:43:00,11.9,8.2,29.93,West,270,1.1,2.9,85,0.00,,,0.00,WUHU216HW,2013-02-16 09:43:00,
2013-02-16 00:48:00,11.3,7.4,29.93,WSW,248,1.8,2.0,84,0.00,,,0.00,WUHU216HW,2013-02-16 09:48:00,
2013-02-16 00:53:00,11.2,7.5,29.93,West,270,0.9,2.0,85,0.00,,,0.00,WUHU216HW,2013-02-16 09:53:00,
2013-02-16 00:58:00,10.8,6.8,29.93,West,270,0.9,2.0,84,0.00,,,0.00,WUHU216HW,2013-02-16 09:58:00,
2013-02-16 01:03:00,10.6,6.7,29.93,WSW,248,0.4,1.8,84,0.00,,,0.00,WUHU216HW,2013-02-16 10:03:00,
2013-02-16 01:08:00,10.4,6.5,29.93,NW,315,1.8,1.8,84,0.00,,,0.00,WUHU216HW,2013-02-16 10:08:00,
2013-02-16 01:13:00,10.4,6.5,29.94,NW,315,0.7,1.8,84,0.00,,,0.00,WUHU216HW,2013-02-16 10:13:00,
2013-02-16 01:18:00,10.1,6.1,29.94,NW,315,2.0,2.7,84,0.00,,,0.00,WUHU216HW,2013-02-16 10:18:00,
2013-02-16 01:23:00,10.1,6.1,29.94,North,0,0.4,2.7,84,0.00,,,0.00,WUHU216HW,2013-02-16 10:23:00,
2013-02-16 01:28:00,9.9,5.9,29.94,NNE,23,0.4,2.0,84,0.00,,,0.00,WUHU216HW,2013-02-16 10:28:00,
2013-02-16 01:33:00,9.7,5.8,29.94,North,0,0.0,0.9,84,0.00,,,0.00,WUHU216HW,2013-02-16 10:33:00,
2013-02-16 01:38:00,9.2,5.3,29.95,WNW,293,0.0,0.9,84,0.00,,,0.00,WUHU216HW,2013-02-16 10:38:00,
2013-02-16 01:43:00,9.0,5.1,29.94,West,270,0.2,1.1,84,0.00,,,0.00,WUHU216HW,2013-02-16 10:43:00,
2013-02-16 01:48:00,9.0,5.1,29.95,SSE,158,0.4,1.8,84,0.00,,,0.00,WUHU216HW,2013-02-16 10:48:00,
2013-02-16 01:53:00,9.4,5.5,29.95,South,180,4.0,4.3,84,0.00,,,0.00,WUHU216HW,2013-02-16 10:53:00,
2013-02-16 01:58:00,10.6,7.2,29.95,SSE,158,2.5,6.0,86,0.00,,,0.00,WUHU216HW,2013-02-16 10:58:00,
2013-02-16 02:03:00,13.3,10.2,29.94,South,180,2.5,9.6,87,0.00,,,0.00,WUHU216HW,2013-02-16 11:03:00,
2013-02-16 02:08:00,14.6,11.7,29.95,South,180,4.0,9.6,88,0.00,,,0.00,WUHU216HW,2013-02-16 11:08:00,
2013-02-16 02:13:00,15.5,12.0,29.95,WSW,248,7.8,9.2,86,0.00,,,0.00,WUHU216HW,2013-02-16 11:13:00,
2013-02-16 02:18:00,16.0,12.8,29.95,SE,135,3.1,9.2,87,0.00,,,0.00,WUHU216HW,2013-02-16 11:18:00,
2013-02-16 02:23:00,16.2,12.9,29.95,South,180,6.3,9.2,87,0.00,,,0.00,WUHU216HW,2013-02-16 11:23:00,
2013-02-16 02:28:00,16.2,12.7,29.95,South,180,4.7,8.9,86,0.00,,,0.00,WUHU216HW,2013-02-16 11:28:00,
2013-02-16 02:33:00,16.2,12.7,29.95,South,180,6.3,8.9,86,0.00,,,0.00,WUHU216HW,2013-02-16 11:33:00,
2013-02-16 02:38:00,16.4,12.9,29.95,SSE,158,2.7,7.6,86,0.00,,,0.00,WUHU216HW,2013-02-16 11:38:00,
2013-02-16 02:43:00,16.4,12.6,29.95,SSE,158,4.7,6.9,85,0.00,,,0.00,WUHU216HW,2013-02-16 11:43:00,
2013-02-16 02:48:00,16.2,12.4,29.95,SSW,203,3.6,6.3,85,0.00,,,0.00,WUHU216HW,2013-02-16 11:48:00,
2013-02-16 02:53:00,16.4,12.6,29.96,SSE,158,2.9,6.5,85,0.00,,,0.00,WUHU216HW,2013-02-16 11:53:00,
2013-02-16 02:58:00,16.7,12.9,29.96,South,180,6.0,6.5,85,0.00,,,0.00,WUHU216HW,2013-02-16 11:58:00,
2013-02-16 03:03:00,16.6,12.5,29.95,SE,135,1.3,6.5,84,0.00,,,0.00,WUHU216HW,2013-02-16 12:03:00,
2013-02-16 03:08:00,16.2,12.2,29.95,SSE,158,3.6,6.5,84,0.00,,,0.00,WUHU216HW,2013-02-16 12:08:00,
2013-02-16 03:13:00,15.7,11.6,29.95,ESE,113,2.2,4.0,84,0.00,,,0.00,WUHU216HW,2013-02-16 12:13:00,
2013-02-16 03:18:00,16.0,12.3,29.95,SSE,158,2.0,6.0,85,0.00,,,0.00,WUHU216HW,2013-02-16 12:18:00,
2013-02-16 03:23:00,16.6,12.5,29.95,SSW,203,2.9,6.0,84,0.00,,,0.00,WUHU216HW,2013-02-16 12:23:00,
2013-02-16 03:28:00,17.1,13.0,29.95,SSE,158,0.9,7.4,84,0.00,,,0.00,WUHU216HW,2013-02-16 12:28:00,
2013-02-16 03:33:00,17.6,13.5,29.95,SSE,158,5.8,7.4,84,0.00,,,0.00,WUHU216HW,2013-02-16 12:33:00,
2013-02-16 03:38:00,17.8,13.7,29.95,South,180,6.9,9.2,84,0.00,,,0.00,WUHU216HW,2013-02-16 12:38:00,
2013-02-16 03:43:00,18.2,14.0,29.96,SE,135,3.8,13.0,84,0.00,,,0.00,WUHU216HW,2013-02-16 12:43:00,
2013-02-16 03:48:00,18.4,14.0,29.95,South,180,6.9,13.0,83,0.00,,,0.00,WUHU216HW,2013-02-16 12:48:00,
2013-02-16 03:53:00,18.4,14.0,29.95,SSE,158,5.1,9.2,83,0.00,,,0.00,WUHU216HW,2013-02-16 12:53:00,
2013-02-16 03:58:00,18.4,14.0,29.96,SSE,158,9.8,9.8,83,0.00,,,0.00,WUHU216HW,2013-02-16 12:58:00,
2013-02-16 04:03:00,18.4,14.0,29.95,South,180,4.9,10.5,83,0.00,,,0.00,WUHU216HW,2013-02-16 13:03:00,
2013-02-16 04:08:00,18.4,13.7,29.96,SSE,158,6.3,10.5,82,0.00,,,0.00,WUHU216HW,2013-02-16 13:08:00,
2013-02-16 04:13:00,18.2,13.5,29.95,SSW,203,5.4,9.8,82,0.00,,,0.00,WUHU216HW,2013-02-16 13:13:00,
2013-02-16 04:18:00,18.2,13.5,29.95,SSW,203,9.4,9.6,82,0.00,,,0.00,WUHU216HW,2013-02-16 13:18:00,
2013-02-16 04:23:00,18.0,13.3,29.95,South,180,5.6,9.4,82,0.00,,,0.00,WUHU216HW,2013-02-16 13:23:00,
2013-02-16 04:28:00,18.0,13.3,29.95,SSW,203,3.4,12.1,82,0.00,,,0.00,WUHU216HW,2013-02-16 13:28:00,
2013-02-16 04:33:00,18.0,13.1,29.95,South,180,6.9,12.1,81,0.00,,,0.00,WUHU216HW,2013-02-16 13:33:00,
2013-02-16 04:38:00,18.0,13.1,29.95,West,270,2.2,7.6,81,0.00,,,0.00,WUHU216HW,2013-02-16 13:38:00,
2013-02-16 04:43:00,18.0,13.1,29.95,ESE,113,1.8,8.5,81,0.00,,,0.00,WUHU216HW,2013-02-16 13:43:00,
2013-02-16 04:48:00,17.8,12.9,29.95,SSE,158,1.6,8.5,81,0.00,,,0.00,WUHU216HW,2013-02-16 13:48:00,
2013-02-16 04:53:00,17.8,12.9,29.95,South,180,5.4,8.5,81,0.00,,,0.00,WUHU216HW,2013-02-16 13:53:00,
2013-02-16 04:58:00,18.0,12.8,29.95,SSE,158,6.9,8.5,80,0.00,,,0.00,WUHU216HW,2013-02-16 13:58:00,
2013-02-16 05:03:00,18.0,12.8,29.95,WSW,248,3.8,7.6,80,0.00,,,0.00,WUHU216HW,2013-02-16 14:03:00,
2013-02-16 05:08:00,18.0,12.8,29.95,WSW,248,1.8,8.7,80,0.00,,,0.00,WUHU216HW,2013-02-16 14:08:00,
2013-02-16 05:13:00,17.8,12.6,29.95,SSE,158,3.6,8.7,80,0.00,,,0.00,WUHU216HW,2013-02-16 14:13:00,
2013-02-16 05:18:00,17.6,12.4,29.95,South,180,3.1,6.5,80,0.00,,,0.00,WUHU216HW,2013-02-16 14:18:00,
2013-02-16 05:23:00,17.3,12.1,29.95,WSW,248,2.5,6.0,80,0.00,,,0.00,WUHU216HW,2013-02-16 14:23:00,
2013-02-16 05:28:00,16.7,11.6,29.95,SSE,158,2.9,5.1,80,0.00,,,0.00,WUHU216HW,2013-02-16 14:28:00,
2013-02-16 05:33:00,16.2,11.2,29.95,SE,135,2.9,5.1,80,0.00,,,0.00,WUHU216HW,2013-02-16 14:33:00,
2013-02-16 05:38:00,15.5,10.4,29.96,East,90,1.1,3.4,80,0.00,,,0.00,WUHU216HW,2013-02-16 14:38:00,
2013-02-16 05:43:00,14.9,10.2,29.96,SSW,203,0.7,2.9,81,0.00,,,0.00,WUHU216HW,2013-02-16 14:43:00,
2013-02-16 05:48:00,14.8,10.0,29.96,South,180,0.4,2.7,81,0.00,,,0.00,WUHU216HW,2013-02-16 14:48:00,
2013-02-16 05:53:00,14.4,9.6,29.96,SSE,158,0.2,2.5,81,0.00,,,0.00,WUHU216HW,2013-02-16 14:53:00,
2013-02-16 05:58:00,14.4,9.6,29.96,SSE,158,1.6,2.2,81,0.00,,,0.00,WUHU216HW,2013-02-16 14:58:00,
2013-02-16 06:03:00,14.2,9.7,29.96,South,180,1.8,2.2,82,0.00,,,0.00,WUHU216HW,2013-02-16 15:03:00,
2013-02-16 06:08:00,14.0,9.5,29.96,SE,135,0.2,1.8,82,0.00,,,0.00,WUHU216HW,2013-02-16 15:08:00,
2013-02-16 06:13:00,13.7,9.2,29.96,West,270,0.0,1.8,82,0.00,,,0.00,WUHU216HW,2013-02-16 15:13:00,
2013-02-16 06:18:00,13.1,8.6,29.96,NNE,23,0.2,0.4,82,0.00,,,0.00,WUHU216HW,2013-02-16 15:18:00,
2013-02-16 06:23:00,12.6,8.1,29.96,ENE,68,0.2,1.1,82,0.00,,,0.00,WUHU216HW,2013-02-16 15:23:00,
2013-02-16 06:28:00,12.1,7.3,29.96,East,90,0.4,1.1,81,0.00,,,0.00,WUHU216HW,2013-02-16 15:28:00,
2013-02-16 06:33:00,11.7,6.9,29.96,ENE,68,0.9,2.5,81,0.00,,,0.00,WUHU216HW,2013-02-16 15:33:00,
2013-02-16 06:38:00,11.2,6.4,29.97,SE,135,0.2,2.5,81,0.00,,,0.00,WUHU216HW,2013-02-16 15:38:00,
2013-02-16 06:43:00,10.8,6.0,29.97,SE,135,0.9,1.1,81,0.00,,,0.00,WUHU216HW,2013-02-16 15:43:00,
2013-02-16 06:48:00,10.4,5.9,29.97,SE,135,0.0,1.1,82,0.00,,,0.00,WUHU216HW,2013-02-16 15:48:00,
2013-02-16 06:53:00,10.3,5.8,29.97,SE,135,1.1,1.1,82,0.00,,,0.00,WUHU216HW,2013-02-16 15:53:00,
2013-02-16 06:58:00,9.7,5.3,29.97,ENE,68,0.7,1.8,82,0.00,,,0.00,WUHU216HW,2013-02-16 15:58:00,
2013-02-16 07:03:00,9.5,5.1,29.97,ESE,113,1.1,1.8,82,0.00,,,0.00,WUHU216HW,2013-02-16 16:03:00,
2013-02-16 07:08:00,9.2,4.8,29.97,ESE,113,0.9,1.1,82,0.00,,,0.00,WUHU216HW,2013-02-16 16:08:00,
2013-02-16 07:13:00,9.0,4.6,29.97,ESE,113,1.8,1.8,82,0.00,,,0.00,WUHU216HW,2013-02-16 16:13:00,
2013-02-16 07:18:00,8.8,4.4,29.97,SE,135,1.1,2.0,82,0.00,,,0.00,WUHU216HW,2013-02-16 16:18:00,
2013-02-16 07:23:00,8.5,4.2,29.97,SE,135,1.3,2.0,82,0.00,,,0.00,WUHU216HW,2013-02-16 16:23:00,
2013-02-16 07:28:00,8.3,4.1,29.97,SE,135,0.4,1.8,83,0.00,,,0.00,WUHU216HW,2013-02-16 16:28:00,
2013-02-16 07:33:00,8.1,4.0,29.97,SE,135,0.7,1.3,83,0.00,,,0.00,WUHU216HW,2013-02-16 16:33:00,
2013-02-16 07:38:00,7.9,3.8,29.97,ENE,68,0.7,1.1,83,0.00,,,0.00,WUHU216HW,2013-02-16 16:38:00,
2013-02-16 07:43:00,7.9,3.8,29.97,ESE,113,0.4,1.1,83,0.00,,,0.00,WUHU216HW,2013-02-16 16:43:00,
2013-02-16 07:48:00,7.7,3.6,29.97,SE,135,0.4,0.7,83,0.00,,,0.00,WUHU216HW,2013-02-16 16:48:00,
2013-02-16 07:52:00,7.6,3.4,29.97,ESE,113,0.7,0.7,83,0.00,,,0.00,WUHU216HW,2013-02-16 16:52:00,
2013-02-16 07:57:00,7.4,3.2,29.97,ESE,113,1.3,1.3,83,0.00,,,0.00,WUHU216HW,2013-02-16 16:57:00,
2013-02-16 08:02:00,7.2,3.1,29.97,ESE,113,1.1,1.6,83,0.00,,,0.00,WUHU216HW,2013-02-16 17:02:00,
2013-02-16 08:07:00,7.0,2.9,29.97,ESE,113,1.1,1.6,83,0.00,,,0.00,WUHU216HW,2013-02-16 17:07:00,
2013-02-16 08:12:00,6.8,2.7,29.97,ESE,113,1.1,1.8,83,0.00,,,0.00,WUHU216HW,2013-02-16 17:12:00,
2013-02-16 08:17:00,6.8,2.7,29.97,East,90,0.0,1.8,83,0.00,,,0.00,WUHU216HW,2013-02-16 17:17:00,
2013-02-16 08:22:00,6.7,2.5,29.96,ESE,113,0.0,1.1,83,0.00,,,0.00,WUHU216HW,2013-02-16 17:22:00,
2013-02-16 08:27:00,6.3,2.2,29.96,NNW,338,0.0,0.9,83,0.00,,,0.00,WUHU216HW,2013-02-16 17:27:00,
2013-02-16 08:32:00,6.1,2.0,29.96,North,0,0.0,0.9,83,0.00,,,0.00,WUHU216HW,2013-02-16 17:32:00,
2013-02-16 08:37:00,6.1,2.0,29.96,NNE,23,0.2,0.4,83,0.00,,,0.00,WUHU216HW,2013-02-16 17:37:00,
2013-02-16 08:42:00,5.8,1.6,29.96,NNW,338,0.7,0.9,83,0.00,,,0.00,WUHU216HW,2013-02-16 17:42:00,
2013-02-16 08:47:00,5.4,1.1,29.96,NNW,338,0.0,0.9,82,0.00,,,0.00,WUHU216HW,2013-02-16 17:47:00,
2013-02-16 08:52:00,5.4,1.1,29.96,NNW,338,0.0,0.7,82,0.00,,,0.00,WUHU216HW,2013-02-16 17:52:00,
2013-02-16 08:57:00,5.2,0.9,29.96,SW,225,0.0,1.3,82,0.00,,,0.00,WUHU216HW,2013-02-16 17:57:00,
2013-02-16 09:02:00,5.0,0.9,29.96,North,0,1.6,2.5,83,0.00,,,0.00,WUHU216HW,2013-02-16 18:02:00,
2013-02-16 09:07:00,5.0,0.9,29.96,NW,315,0.7,2.5,83,0.00,,,0.00,WUHU216HW,2013-02-16 18:07:00,
2013-02-16 09:12:00,5.0,0.9,29.96,ESE,113,0.0,1.6,83,0.00,,,0.00,WUHU216HW,2013-02-16 18:12:00,
2013-02-16 09:17:00,4.9,0.7,29.97,ESE,113,0.0,1.1,83,0.00,,,0.00,WUHU216HW,2013-02-16 18:17:00,
2013-02-16 09:22:00,4.9,0.7,29.97,ENE,68,0.0,2.5,83,0.00,,,0.00,WUHU216HW,2013-02-16 18:22:00,
2013-02-16 09:27:00,4.7,0.5,29.96,NNE,23,0.4,2.5,83,0.00,,,0.00,WUHU216HW,2013-02-16 18:27:00,
2013-02-16 09:32:00,4.9,0.7,29.96,NE,45,0.0,1.3,83,0.00,,,0.00,WUHU216HW,2013-02-16 18:32:00,
2013-02-16 09:37:00,5.0,0.9,29.96,NNE,23,0.0,1.3,83,0.00,,,0.00,WUHU216HW,2013-02-16 18:37:00,
2013-02-16 09:42:00,5.2,1.1,29.96,North,0,0.9,0.9,83,0.00,,,0.00,WUHU216HW,2013-02-16 18:42:00,
2013-02-16 09:47:00,5.2,1.1,29.96,North,0,0.4,1.1,83,0.00,,,0.00,WUHU216HW,2013-02-16 18:47:00,
2013-02-16 09:52:00,5.0,0.9,29.97,North,0,1.6,1.6,83,0.00,,,0.00,WUHU216HW,2013-02-16 18:52:00,
2013-02-16 09:57:00,5.0,0.9,29.97,North,0,0.0,1.6,83,0.00,,,0.00,WUHU216HW,2013-02-16 18:57:00,
2013-02-16 10:02:00,5.6,1.4,29.97,North,0,0.0,1.6,83,0.00,,,0.00,WUHU216HW,2013-02-16 19:02:00,
2013-02-16 10:07:00,6.1,2.3,29.96,North,0,0.0,0.0,84,0.00,,,0.00,WUHU216HW,2013-02-16 19:07:00,
2013-02-16 10:12:00,6.7,2.8,29.96,North,0,0.0,0.0,84,0.00,,,0.00,WUHU216HW,2013-02-16 19:12:00,
2013-02-16 10:17:00,6.8,2.7,29.96,North,0,0.0,0.0,83,0.00,,,0.00,WUHU216HW,2013-02-16 19:17:00,
2013-02-16 10:22:00,7.0,2.9,29.96,North,0,0.0,0.0,83,0.00,,,0.00,WUHU216HW,2013-02-16 19:22:00,
2013-02-16 10:27:00,7.0,3.2,29.96,North,0,0.0,0.0,84,0.00,,,0.00,WUHU216HW,2013-02-16 19:27:00,
2013-02-16 10:32:00,7.2,3.1,29.97,North,0,0.0,0.0,83,0.00,,,0.00,WUHU216HW,2013-02-16 19:32:00,
2013-02-16 10:37:00,7.6,3.4,29.97,North,0,0.0,0.0,83,0.00,,,0.00,WUHU216HW,2013-02-16 19:37:00,
2013-02-16 10:42:00,7.9,3.8,29.98,North,0,0.0,0.0,83,0.00,,,0.00,WUHU216HW,2013-02-16 19:42:00,
2013-02-16 10:47:00,8.3,4.1,29.97,North,0,0.0,0.0,83,0.00,,,0.00,WUHU216HW,2013-02-16 19:47:00,
2013-02-16 10:52:00,9.0,5.1,29.97,North,0,0.0,0.0,84,0.00,,,0.00,WUHU216HW,2013-02-16 19:52:00,
2013-02-16 10:57:00,9.4,5.5,29.98,North,0,0.0,0.0,84,0.00,,,0.00,WUHU216HW,2013-02-16 19:57:00,
2013-02-16 11:02:00,9.9,5.7,29.98,North,0,0.0,0.0,83,0.00,,,0.00,WUHU216HW,2013-02-16 20:02:00,
2013-02-16 11:07:00,10.4,6.2,29.97,North,0,0.0,0.0,83,0.00,,,0.00,WUHU216HW,2013-02-16 20:07:00,
2013-02-16 11:12:00,11.0,6.8,29.97,North,0,0.0,0.0,83,0.00,,,0.00,WUHU216HW,2013-02-16 20:12:00,
2013-02-16 11:17:00,11.5,7.3,29.97,North,0,0.0,0.0,83,0.00,,,0.00,WUHU216HW,2013-02-16 20:17:00,
2013-02-16 11:22:00,12.2,8.0,29.97,North,0,0.0,0.0,83,0.00,,,0.00,WUHU216HW,2013-02-16 20:22:00,
2013-02-16 11:27:00,13.0,8.5,29.97,North,0,0.0,0.0,82,0.00,,,0.00,WUHU216HW,2013-02-16 20:27:00,
2013-02-16 11:32:00,13.5,9.0,29.97,North,0,0.0,0.0,82,0.00,,,0.00,WUHU216HW,2013-02-16 20:32:00,
2013-02-16 11:37:00,14.0,9.5,29.97,North,0,0.0,0.0,82,0.00,,,0.00,WUHU216HW,2013-02-16 20:37:00,
2013-02-16 11:42:00,14.8,10.5,29.97,North,0,0.0,0.0,83,0.00,,,0.00,WUHU216HW,2013-02-16 20:42:00,
2013-02-16 11:47:00,15.3,10.8,29.97,North,0,0.0,0.0,82,0.00,,,0.00,WUHU216HW,2013-02-16 20:47:00,
2013-02-16 11:52:00,16.2,11.3,29.97,North,0,0.0,0.0,81,0.00,,,0.00,WUHU216HW,2013-02-16 20:52:00,
2013-02-16 11:57:00,16.7,11.9,29.97,North,0,0.0,0.0,81,0.00,,,0.00,WUHU216HW,2013-02-16 20:57:00,
2013-02-16 12:02:00,17.3,12.1,29.97,North,0,0.0,0.0,80,0.00,,,0.00,WUHU216HW,2013-02-16 21:02:00,
2013-02-16 12:07:00,18.0,13.1,29.97,North,0,0.0,0.0,81,0.00,,,0.00,WUHU216HW,2013-02-16 21:07:00,
2013-02-16 12:12:00,18.9,13.7,29.97,North,0,0.0,0.0,80,0.00,,,0.00,WUHU216HW,2013-02-16 21:12:00,
2013-02-16 12:17:00,19.6,14.7,29.97,North,0,0.0,0.0,81,0.00,,,0.00,WUHU216HW,2013-02-16 21:17:00,
2013-02-16 12:22:00,20.3,14.9,29.97,North,0,0.0,0.0,79,0.00,,,0.00,WUHU216HW,2013-02-16 21:22:00,
2013-02-16 12:27:00,20.9,15.4,29.96,ENE,68,2.5,2.5,79,0.00,,,0.00,WUHU216HW,2013-02-16 21:27:00,
2013-02-16 12:32:00,21.6,16.4,29.96,NNE,23,1.6,2.5,80,0.00,,,0.00,WUHU216HW,2013-02-16 21:32:00,
2013-02-16 12:37:00,22.1,16.7,29.96,NE,45,3.4,3.4,79,0.00,,,0.00,WUHU216HW,2013-02-16 21:37:00,
2013-02-16 12:42:00,22.7,16.8,29.97,NNE,23,2.0,3.4,78,0.00,,,0.00,WUHU216HW,2013-02-16 21:42:00,
2013-02-16 12:47:00,23.0,16.3,29.97,WNW,293,0.9,3.4,75,0.00,,,0.00,WUHU216HW,2013-02-16 21:47:00,
2013-02-16 12:52:00,23.4,15.7,29.97,NW,315,0.9,2.5,72,0.00,,,0.00,WUHU216HW,2013-02-16 21:52:00,
2013-02-16 12:57:00,23.6,16.5,29.97,WNW,293,0.4,1.1,74,0.00,,,0.00,WUHU216HW,2013-02-16 21:57:00,
2013-02-16 13:02:00,24.3,17.5,29.96,NE,45,1.6,1.8,75,0.00,,,0.00,WUHU216HW,2013-02-16 22:02:00,
2013-02-16 13:07:00,25.0,18.5,29.96,NNE,23,4.3,4.3,76,0.00,,,0.00,WUHU216HW,2013-02-16 22:07:00,
2013-02-16 13:12:00,25.6,18.7,29.96,North,0,2.0,4.5,75,0.00,,,0.00,WUHU216HW,2013-02-16 22:12:00,
2013-02-16 13:17:00,26.3,19.4,29.96,NE,45,1.8,4.5,75,0.00,,,0.00,WUHU216HW,2013-02-16 22:17:00,
2013-02-16 13:22:00,26.8,19.9,29.96,North,0,2.5,2.9,75,0.00,,,0.00,WUHU216HW,2013-02-16 22:22:00,
2013-02-16 13:27:00,27.0,19.4,29.95,North,0,2.0,5.4,73,0.00,,,0.00,WUHU216HW,2013-02-16 22:27:00,
2013-02-16 13:32:00,27.0,19.8,29.95,NE,45,3.4,5.6,74,0.00,,,0.00,WUHU216HW,2013-02-16 22:32:00,
2013-02-16 13:37:00,27.0,19.4,29.95,North,0,2.7,5.6,73,0.00,,,0.00,WUHU216HW,2013-02-16 22:37:00,
2013-02-16 13:42:00,27.2,19.4,29.95,ENE,68,1.1,6.7,72,0.00,,,0.00,WUHU216HW,2013-02-16 22:42:00,
2013-02-16 13:47:00,27.4,19.5,29.95,NE,45,6.3,6.7,72,0.00,,,0.00,WUHU216HW,2013-02-16 22:47:00,
2013-02-16 13:52:00,27.7,19.9,29.95,NE,45,3.1,6.9,72,0.00,,,0.00,WUHU216HW,2013-02-16 22:52:00,
2013-02-16 13:57:00,27.7,19.3,29.95,NE,45,4.9,6.9,70,0.00,,,0.00,WUHU216HW,2013-02-16 22:57:00,
2013-02-16 14:02:00,27.7,18.5,29.95,North,0,8.1,8.1,68,0.00,,,0.00,WUHU216HW,2013-02-16 23:02:00,
2013-02-16 14:07:00,27.4,18.5,29.94,North,0,5.6,8.1,69,0.00,,,0.00,WUHU216HW,2013-02-16 23:07:00,
2013-02-16 14:12:00,27.0,17.5,29.94,NNE,23,5.1,8.1,67,0.00,,,0.00,WUHU216HW,2013-02-16 23:12:00,
2013-02-16 14:17:00,27.0,18.2,29.94,NE,45,3.6,7.8,69,0.00,,,0.00,WUHU216HW,2013-02-16 23:17:00,
2013-02-16 14:22:00,27.4,18.5,29.94,North,0,5.1,7.6,69,0.00,,,0.00,WUHU216HW,2013-02-16 23:22:00,
2013-02-16 14:27:00,27.4,18.5,29.94,NNE,23,5.4,7.6,69,0.00,,,0.00,WUHU216HW,2013-02-16 23:27:00,
2013-02-16 14:32:00,27.5,18.4,29.93,North,0,4.0,6.3,68,0.00,,,0.00,WUHU216HW,2013-02-16 23:32:00,
2013-02-16 14:37:00,27.4,17.5,29.93,ENE,68,4.3,6.5,66,0.00,,,0.00,WUHU216HW,2013-02-16 23:37:00,
2013-02-16 14:42:00,27.2,18.0,29.93,ENE,68,1.8,6.5,68,0.00,,,0.00,WUHU216HW,2013-02-16 23:42:00,
2013-02-16 14:47:00,27.2,17.3,29.93,NE,45,5.6,5.8,66,0.00,,,0.00,WUHU216HW,2013-02-16 23:47:00,
2013-02-16 14:52:00,27.0,17.5,29.93,NNE,23,6.5,6.5,67,0.00,,,0.00,WUHU216HW,2013-02-16 23:52:00,
2013-02-16 14:57:00,27.0,17.1,29.92,NNE,23,6.3,7.6,66,0.00,,,0.00,WUHU216HW,2013-02-16 23:57:00,
2013-02-16 15:02:00,27.0,17.1,29.92,NNE,23,3.8,7.6,66,0.00,,,0.00,WUHU216HW,2013-02-17 00:02:00,
2013-02-16 15:07:00,27.0,17.5,29.92,North,0,4.0,6.9,67,0.00,,,0.00,WUHU216HW,2013-02-17 00:07:00,
2013-02-16 15:12:00,27.0,17.1,29.92,NNE,23,3.1,7.2,66,0.00,,,0.00,WUHU216HW,2013-02-17 00:12:00,
2013-02-16 15:17:00,27.0,17.5,29.91,North,0,5.4,7.2,67,0.00,,,0.00,WUHU216HW,2013-02-17 00:17:00,
2013-02-16 15:22:00,27.2,17.6,29.91,NNE,23,4.7,9.8,67,0.00,,,0.00,WUHU216HW,2013-02-17 00:22:00,
2013-02-16 15:27:00,27.4,17.5,29.91,North,0,2.2,9.8,66,0.00,,,0.00,WUHU216HW,2013-02-17 00:27:00,
2013-02-16 15:32:00,27.0,16.7,29.91,NNE,23,2.5,5.4,65,0.00,,,0.00,WUHU216HW,2013-02-17 00:32:00,
2013-02-16 15:37:00,27.0,16.7,29.91,North,0,3.4,4.3,65,0.00,,,0.00,WUHU216HW,2013-02-17 00:37:00,
2013-02-16 15:42:00,27.0,17.5,29.91,North,0,3.4,5.4,67,0.00,,,0.00,WUHU216HW,2013-02-17 00:42:00,
2013-02-16 15:47:00,27.0,17.5,29.90,NNE,23,3.1,6.5,67,0.00,,,0.00,WUHU216HW,2013-02-17 00:47:00,
2013-02-16 15:52:00,27.0,17.5,29.90,North,0,5.4,7.6,67,0.00,,,0.00,WUHU216HW,2013-02-17 00:52:00,
2013-02-16 15:57:00,27.0,17.1,29.90,North,0,4.7,7.6,66,0.00,,,0.00,WUHU216HW,2013-02-17 00:57:00,
2013-02-16 16:02:00,26.6,16.4,29.90,North,0,0.0,5.4,65,0.00,,,0.00,WUHU216HW,2013-02-17 01:02:00,
2013-02-16 16:07:00,26.6,17.1,29.90,North,0,1.8,5.1,67,0.00,,,0.00,WUHU216HW,2013-02-17 01:07:00,
2013-02-16 16:12:00,26.6,16.7,29.89,North,0,1.8,5.1,66,0.00,,,0.00,WUHU216HW,2013-02-17 01:12:00,
2013-02-16 16:17:00,26.3,16.7,29.89,North,0,4.0,5.6,67,0.00,,,0.00,WUHU216HW,2013-02-17 01:17:00,
2013-02-16 16:22:00,26.3,16.7,29.89,NW,315,2.5,10.1,67,0.00,,,0.00,WUHU216HW,2013-02-17 01:22:00,
2013-02-16 16:27:00,26.1,16.2,29.89,North,0,1.8,10.1,66,0.00,,,0.00,WUHU216HW,2013-02-17 01:27:00,
2013-02-16 16:32:00,25.9,15.7,29.89,NE,45,5.8,5.8,65,0.00,,,0.00,WUHU216HW,2013-02-17 01:32:00,
2013-02-16 16:37:00,25.9,15.7,29.89,North,0,4.9,7.2,65,0.00,,,0.00,WUHU216HW,2013-02-17 01:37:00,
2013-02-16 16:42:00,25.7,15.2,29.88,North,0,4.9,7.2,64,0.00,,,0.00,WUHU216HW,2013-02-17 01:42:00,
2013-02-16 16:47:00,25.7,15.8,29.88,North,0,5.1,7.4,66,0.00,,,0.00,WUHU216HW,2013-02-17 01:47:00,
2013-02-16 16:52:00,25.6,15.7,29.88,North,0,1.8,7.4,66,0.00,,,0.00,WUHU216HW,2013-02-17 01:52:00,
2013-02-16 16:57:00,25.6,16.0,29.88,North,0,2.5,5.4,67,0.00,,,0.00,WUHU216HW,2013-02-17 01:57:00,
2013-02-16 17:02:00,25.4,16.2,29.88,NNW,338,2.2,6.9,68,0.00,,,0.00,WUHU216HW,2013-02-17 02:02:00,
2013-02-16 17:07:00,25.2,16.4,29.88,North,0,2.7,6.9,69,0.00,,,0.00,WUHU216HW,2013-02-17 02:07:00,
2013-02-16 17:12:00,25.2,16.4,29.87,North,0,2.5,7.2,69,0.00,,,0.00,WUHU216HW,2013-02-17 02:12:00,
2013-02-16 17:17:00,24.8,16.4,29.86,North,0,3.4,7.2,70,0.00,,,0.00,WUHU216HW,2013-02-17 02:17:00,
2013-02-16 17:22:00,24.8,16.4,29.85,NNW,338,6.9,7.8,70,0.00,,,0.00,WUHU216HW,2013-02-17 02:22:00,
2013-02-16 17:27:00,24.8,15.7,29.86,North,0,1.1,7.8,68,0.00,,,0.00,WUHU216HW,2013-02-17 02:27:00,
2013-02-16 17:32:00,24.8,15.7,29.87,WNW,293,1.3,6.9,68,0.00,,,0.00,WUHU216HW,2013-02-17 02:32:00,
2013-02-16 17:37:00,24.7,15.8,29.88,SW,225,0.0,2.9,69,0.00,,,0.00,WUHU216HW,2013-02-17 02:37:00,
2013-02-16 17:42:00,24.3,15.6,29.87,WNW,293,2.2,3.4,69,0.00,,,0.00,WUHU216HW,2013-02-17 02:42:00,
2013-02-16 17:47:00,24.1,15.8,29.87,North,0,1.1,4.3,70,0.00,,,0.00,WUHU216HW,2013-02-17 02:47:00,
2013-02-16 17:52:00,23.9,16.2,29.86,North,0,4.5,6.5,72,0.00,,,0.00,WUHU216HW,2013-02-17 02:52:00,
2013-02-16 17:57:00,23.8,16.4,29.87,North,0,1.8,6.5,73,0.00,,,0.00,WUHU216HW,2013-02-17 02:57:00,
2013-02-16 18:03:00,23.6,16.5,29.87,NW,315,4.9,4.9,74,0.00,,,0.00,WUHU216HW,2013-02-17 03:03:00,
2013-02-16 18:08:00,23.6,16.8,29.87,North,0,2.5,6.0,75,0.00,,,0.00,WUHU216HW,2013-02-17 03:08:00,
2013-02-16 18:13:00,23.4,16.7,29.87,North,0,2.9,6.0,75,0.00,,,0.00,WUHU216HW,2013-02-17 03:13:00,
2013-02-16 18:18:00,23.4,16.7,29.86,North,0,2.9,7.6,75,0.00,,,0.00,WUHU216HW,2013-02-17 03:18:00,
2013-02-16 18:23:00,23.2,16.7,29.86,North,0,2.2,8.3,76,0.00,,,0.00,WUHU216HW,2013-02-17 03:23:00,
2013-02-16 18:28:00,23.0,16.9,29.86,North,0,4.0,8.3,77,0.00,,,0.00,WUHU216HW,2013-02-17 03:28:00,
2013-02-16 18:33:00,23.0,16.9,29.86,North,0,2.9,5.6,77,0.00,,,0.00,WUHU216HW,2013-02-17 03:33:00,
2013-02-16 18:38:00,22.9,16.8,29.85,NNW,338,4.9,6.7,77,0.00,,,0.00,WUHU216HW,2013-02-17 03:38:00,
2013-02-16 18:43:00,22.7,16.6,29.85,North,0,4.0,6.7,77,0.00,,,0.00,WUHU216HW,2013-02-17 03:43:00,
2013-02-16 18:48:00,22.7,16.8,29.85,North,0,2.5,6.7,78,0.00,,,0.00,WUHU216HW,2013-02-17 03:48:00,
2013-02-16 18:53:00,22.5,16.7,29.84,North,0,5.1,6.9,78,0.00,,,0.00,WUHU216HW,2013-02-17 03:53:00,
2013-02-16 18:58:00,22.3,16.8,29.84,North,0,4.9,8.1,79,0.00,,,0.00,WUHU216HW,2013-02-17 03:58:00,
2013-02-16 19:03:00,22.1,16.9,29.84,North,0,6.3,8.1,80,0.00,,,0.00,WUHU216HW,2013-02-17 04:03:00,
2013-02-16 19:08:00,22.0,16.7,29.83,NNE,23,6.0,11.0,80,0.00,,,0.00,WUHU216HW,2013-02-17 04:08:00,
2013-02-16 19:13:00,21.8,16.6,29.83,North,0,4.7,14.5,80,0.00,,,0.00,WUHU216HW,2013-02-17 04:13:00,
2013-02-16 19:18:00,21.6,16.7,29.83,North,0,9.4,14.5,81,0.00,,,0.00,WUHU216HW,2013-02-17 04:18:00,
2013-02-16 19:23:00,21.4,16.5,29.83,North,0,12.5,12.5,81,0.00,,,0.00,WUHU216HW,2013-02-17 04:23:00,
2013-02-16 19:28:00,21.2,16.6,29.82,North,0,5.8,14.3,82,0.00,,,0.00,WUHU216HW,2013-02-17 04:28:00,
2013-02-16 19:33:00,21.1,16.4,29.82,North,0,4.5,14.3,82,0.00,,,0.00,WUHU216HW,2013-02-17 04:33:00,
2013-02-16 19:38:00,21.1,16.4,29.82,NNW,338,9.2,12.5,82,0.00,,,0.00,WUHU216HW,2013-02-17 04:38:00,
2013-02-16 19:43:00,20.9,16.2,29.82,NNE,23,6.3,10.5,82,0.00,,,0.00,WUHU216HW,2013-02-17 04:43:00,
2013-02-16 19:48:00,20.7,16.0,29.82,North,0,4.9,12.1,82,0.00,,,0.00,WUHU216HW,2013-02-17 04:48:00,
2013-02-16 19:53:00,20.5,15.8,29.81,North,0,6.9,12.1,82,0.00,,,0.00,WUHU216HW,2013-02-17 04:53:00,
2013-02-16 19:58:00,20.5,15.8,29.81,North,0,2.7,11.9,82,0.00,,,0.00,WUHU216HW,2013-02-17 04:58:00,
2013-02-16 20:00:00,20.5,15.8,29.81,North,0,9.2,11.9,82,0.00,,,0.00,WUHU216HW,2013-02-17 05:00:00,
2013-02-16 20:05:00,20.5,15.8,29.80,NNW,338,3.4,11.9,82,0.00,,,0.00,WUHU216HW,2013-02-17 05:05:00,
2013-02-16 20:10:00,20.3,15.7,29.80,North,0,4.3,7.6,82,0.00,,,0.00,WUHU216HW,2013-02-17 05:10:00,
2013-02-16 20:15:00,20.2,15.5,29.80,North,0,6.9,8.5,82,0.00,,,0.00,WUHU216HW,2013-02-17 05:15:00,
2013-02-16 20:20:00,20.2,15.5,29.80,North,0,6.5,11.0,82,0.00,,,0.00,WUHU216HW,2013-02-17 05:20:00,
2013-02-16 20:25:00,20.2,15.8,29.80,North,0,6.7,13.0,83,0.00,,,0.00,WUHU216HW,2013-02-17 05:25:00,
2013-02-16 20:30:00,20.2,15.5,29.79,NE,45,6.7,13.0,82,0.00,,,0.00,WUHU216HW,2013-02-17 05:30:00,
2013-02-16 20:35:00,20.2,15.5,29.79,North,0,9.8,12.3,82,0.00,,,0.00,WUHU216HW,2013-02-17 05:35:00,
2013-02-16 20:40:00,20.2,15.8,29.78,NNE,23,5.1,17.7,83,0.00,,,0.00,WUHU216HW,2013-02-17 05:40:00,
2013-02-16 20:45:00,20.2,15.5,29.78,NNE,23,14.3,17.7,82,0.00,,,0.00,WUHU216HW,2013-02-17 05:45:00,
2013-02-16 20:50:00,20.2,15.8,29.78,North,0,6.9,14.3,83,0.00,,,0.00,WUHU216HW,2013-02-17 05:50:00,
2013-02-16 20:55:00,20.2,15.5,29.78,North,0,5.6,15.7,82,0.00,,,0.00,WUHU216HW,2013-02-17 05:55:00,
2013-02-16 21:00:00,20.2,15.5,29.78,North,0,7.4,15.7,82,0.00,,,0.00,WUHU216HW,2013-02-17 06:00:00,
2013-02-16 21:05:00,20.2,15.5,29.78,North,0,4.9,13.4,82,0.00,,,0.00,WUHU216HW,2013-02-17 06:05:00,
2013-02-16 21:10:00,20.2,15.5,29.77,NNW,338,8.9,12.5,82,0.00,,,0.00,WUHU216HW,2013-02-17 06:10:00,
2013-02-16 21:15:00,20.2,15.5,29.77,NNW,338,5.4,13.2,82,0.00,,,0.00,WUHU216HW,2013-02-17 06:15:00,
2013-02-16 21:20:00,20.2,15.5,29.77,North,0,7.2,14.5,82,0.00,,,0.00,WUHU216HW,2013-02-17 06:20:00,
2013-02-16 21:25:00,20.2,15.8,29.77,North,0,5.8,14.5,83,0.00,,,0.00,WUHU216HW,2013-02-17 06:25:00,
2013-02-16 21:30:00,20.2,15.8,29.77,NNE,23,7.4,14.8,83,0.00,,,0.00,WUHU216HW,2013-02-17 06:30:00,
2013-02-16 21:35:00,20.0,15.8,29.76,NNE,23,6.9,14.8,84,0.00,,,0.00,WUHU216HW,2013-02-17 06:35:00,
2013-02-16 21:40:00,20.0,15.8,29.76,North,0,6.9,14.8,84,0.00,,,0.00,WUHU216HW,2013-02-17 06:40:00,
2013-02-16 21:45:00,20.0,15.8,29.76,NNW,338,7.8,14.8,84,0.00,,,0.00,WUHU216HW,2013-02-17 06:45:00,
2013-02-16 21:50:00,20.0,15.8,29.75,North,0,5.6,12.8,84,0.00,,,0.00,WUHU216HW,2013-02-17 06:50:00,
2013-02-16 21:55:00,20.0,16.1,29.75,North,0,7.8,12.1,85,0.00,,,0.00,WUHU216HW,2013-02-17 06:55:00,
2013-02-16 22:00:00,20.0,16.1,29.75,NNE,23,8.5,16.3,85,0.00,,,0.00,WUHU216HW,2013-02-17 07:00:00,
2013-02-16 22:05:00,20.0,16.1,29.75,North,0,7.6,16.3,85,0.00,,,0.00,WUHU216HW,2013-02-17 07:05:00,
2013-02-16 22:10:00,20.0,16.4,29.74,North,0,12.1,12.1,86,0.00,,,0.00,WUHU216HW,2013-02-17 07:10:00,
2013-02-16 22:15:00,20.0,16.7,29.73,North,0,5.8,14.5,87,0.00,,,0.00,WUHU216HW,2013-02-17 07:15:00,
2013-02-16 22:20:00,19.8,16.5,29.73,North,0,8.9,15.7,87,0.00,,,0.00,WUHU216HW,2013-02-17 07:20:00,
2013-02-16 22:25:00,19.8,16.5,29.73,North,0,6.7,15.7,87,0.00,,,0.00,WUHU216HW,2013-02-17 07:25:00,
2013-02-16 22:30:00,19.8,16.5,29.73,NNE,23,5.6,15.2,87,0.00,,,0.00,WUHU216HW,2013-02-17 07:30:00,
2013-02-16 22:35:00,19.8,16.5,29.73,NNE,23,7.8,15.2,87,0.00,,,0.00,WUHU216HW,2013-02-17 07:35:00,
2013-02-16 22:40:00,19.8,16.5,29.73,North,0,5.4,13.6,87,0.00,,,0.00,WUHU216HW,2013-02-17 07:40:00,
2013-02-16 22:45:00,19.8,16.2,29.73,NNE,23,6.0,13.6,86,0.00,,,0.00,WUHU216HW,2013-02-17 07:45:00,
2013-02-16 22:50:00,20.0,16.7,29.72,NNE,23,10.7,13.6,87,0.00,,,0.00,WUHU216HW,2013-02-17 07:50:00,
2013-02-16 22:55:00,20.0,16.7,29.72,North,0,6.3,12.8,87,0.00,,,0.00,WUHU216HW,2013-02-17 07:55:00,
2013-02-16 23:00:00,20.2,16.8,29.72,NNE,23,8.3,17.4,87,0.00,,,0.00,WUHU216HW,2013-02-17 08:00:00,
2013-02-16 23:05:00,20.3,17.0,29.71,North,0,6.9,17.4,87,0.00,,,0.00,WUHU216HW,2013-02-17 08:05:00,
2013-02-16 23:10:00,20.3,17.0,29.72,North,0,13.0,13.0,87,0.00,,,0.00,WUHU216HW,2013-02-17 08:10:00,
2013-02-16 23:15:00,20.5,17.2,29.71,North,0,10.3,13.0,87,0.00,,,0.00,WUHU216HW,2013-02-17 08:15:00,
2013-02-16 23:20:00,20.5,17.2,29.71,NNE,23,10.7,13.0,87,0.00,,,0.00,WUHU216HW,2013-02-17 08:20:00,
2013-02-16 23:25:00,20.5,17.2,29.71,NNE,23,6.3,13.0,87,0.00,,,0.00,WUHU216HW,2013-02-17 08:25:00,
2013-02-16 23:30:00,20.7,17.4,29.71,North,0,9.2,13.0,87,0.00,,,0.00,WUHU216HW,2013-02-17 08:30:00,
2013-02-16 23:35:00,20.7,17.4,29.71,NNE,23,9.4,15.9,87,0.00,,,0.00,WUHU216HW,2013-02-17 08:35:00,
2013-02-16 23:40:00,20.9,17.6,29.71,North,0,6.3,15.9,87,0.00,,,0.00,WUHU216HW,2013-02-17 08:40:00,
2013-02-16 23:45:00,20.9,17.6,29.71,North,0,11.6,11.9,87,0.00,,,0.00,WUHU216HW,2013-02-17 08:45:00,
2013-02-16 23:50:00,20.9,17.6,29.71,North,0,9.6,15.7,87,0.00,,,0.00,WUHU216HW,2013-02-17 08:50:00,
2013-02-16 23:55:00,20.9,17.6,29.70,North,0,9.8,15.7,87,0.00,,,0.00,WUHU216HW,2013-02-17 08:55:00,